sensor_id;sensor_type;location;lat;lon;timestamp;temperature;humidity
24444;DHT22;13346;50.984;5.822;2023-06-04T00:00:43;11.20;99.90
24444;DHT22;13346;50.984;5.822;2023-06-04T00:03:12;10.40;99.90
24444;DHT22;13346;50.984;5.822;2023-06-04T00:05:39;10.10;99.90
24444;DHT22;13346;50.984;5.822;2023-06-04T00:08:07;10.30;99.90
24444;DHT22;13346;50.984;5.822;2023-06-04T00:10:34;10.40;99.90
24444;DHT22;13346;50.984;5.822;2023-06-04T00:13:01;10.20;99.90
24444;DHT22;13346;50.984;5.822;2023-06-04T00:15:28;10.30;99.90
24444;DHT22;13346;50.984;5.822;2023-06-04T00:17:55;10.20;99.90
24444;DHT22;13346;50.984;5.822;2023-06-04T00:20:24;10.10;99.90
24444;DHT22;13346;50.984;5.822;2023-06-04T00:22:51;10.20;99.90
24444;DHT22;13346;50.984;5.822;2023-06-04T00:25:18;10.30;99.90
24444;DHT22;13346;50.984;5.822;2023-06-04T00:27:45;10.10;99.90
24444;DHT22;13346;50.984;5.822;2023-06-04T00:30:13;9.80;99.90
24444;DHT22;13346;50.984;5.822;2023-06-04T00:32:41;9.50;99.90
24444;DHT22;13346;50.984;5.822;2023-06-04T00:35:08;9.80;99.90
24444;DHT22;13346;50.984;5.822;2023-06-04T00:37:37;10.20;99.90
24444;DHT22;13346;50.984;5.822;2023-06-04T00:40:06;9.90;99.90
24444;DHT22;13346;50.984;5.822;2023-06-04T00:42:33;9.70;99.90
24444;DHT22;13346;50.984;5.822;2023-06-04T00:45:00;10.20;99.90
24444;DHT22;13346;50.984;5.822;2023-06-04T00:47:28;10.20;99.90
24444;DHT22;13346;50.984;5.822;2023-06-04T00:49:56;10.00;99.90
24444;DHT22;13346;50.984;5.822;2023-06-04T00:52:24;9.70;99.90
24444;DHT22;13346;50.984;5.822;2023-06-04T00:54:53;9.70;99.90
24444;DHT22;13346;50.984;5.822;2023-06-04T00:57:21;10.00;99.90
24444;DHT22;13346;50.984;5.822;2023-06-04T00:59:48;10.10;99.90
24444;DHT22;13346;50.984;5.822;2023-06-04T01:02:18;10.00;99.90
24444;DHT22;13346;50.984;5.822;2023-06-04T01:04:53;9.90;99.90
24444;DHT22;13346;50.984;5.822;2023-06-04T01:07:22;9.70;99.90
24444;DHT22;13346;50.984;5.822;2023-06-04T01:09:49;10.00;99.90
24444;DHT22;13346;50.984;5.822;2023-06-04T01:12:18;10.20;99.90
24444;DHT22;13346;50.984;5.822;2023-06-04T01:14:45;10.00;99.90
24444;DHT22;13346;50.984;5.822;2023-06-04T01:17:17;10.20;99.90
24444;DHT22;13346;50.984;5.822;2023-06-04T01:20:07;10.60;99.90
24444;DHT22;13346;50.984;5.822;2023-06-04T01:22:42;10.60;99.90
24444;DHT22;13346;50.984;5.822;2023-06-04T01:25:15;10.60;99.90
24444;DHT22;13346;50.984;5.822;2023-06-04T01:27:48;10.60;99.90
24444;DHT22;13346;50.984;5.822;2023-06-04T01:30:21;10.40;99.90
24444;DHT22;13346;50.984;5.822;2023-06-04T01:32:49;10.10;99.90
24444;DHT22;13346;50.984;5.822;2023-06-04T01:35:17;10.20;99.90
24444;DHT22;13346;50.984;5.822;2023-06-04T01:37:47;10.20;99.90
24444;DHT22;13346;50.984;5.822;2023-06-04T01:40:14;10.40;99.90
24444;DHT22;13346;50.984;5.822;2023-06-04T01:42:42;10.60;99.90
24444;DHT22;13346;50.984;5.822;2023-06-04T01:45:11;10.30;99.90
24444;DHT22;13346;50.984;5.822;2023-06-04T01:47:38;10.20;99.90
24444;DHT22;13346;50.984;5.822;2023-06-04T01:50:06;10.40;99.90
24444;DHT22;13346;50.984;5.822;2023-06-04T01:52:35;10.20;99.90
24444;DHT22;13346;50.984;5.822;2023-06-04T01:55:02;10.10;99.90
24444;DHT22;13346;50.984;5.822;2023-06-04T01:57:30;10.20;99.90
24444;DHT22;13346;50.984;5.822;2023-06-04T01:59:57;10.20;99.90
24444;DHT22;13346;50.984;5.822;2023-06-04T02:02:26;10.10;99.90
24444;DHT22;13346;50.984;5.822;2023-06-04T02:04:53;10.20;99.90
24444;DHT22;13346;50.984;5.822;2023-06-04T02:07:20;10.10;99.90
24444;DHT22;13346;50.984;5.822;2023-06-04T02:09:47;10.50;99.90
24444;DHT22;13346;50.984;5.822;2023-06-04T02:12:14;10.10;99.90
24444;DHT22;13346;50.984;5.822;2023-06-04T02:14:42;10.10;99.90
24444;DHT22;13346;50.984;5.822;2023-06-04T02:17:11;10.00;99.90
24444;DHT22;13346;50.984;5.822;2023-06-04T02:19:40;10.20;99.90
24444;DHT22;13346;50.984;5.822;2023-06-04T02:22:10;10.30;99.90
24444;DHT22;13346;50.984;5.822;2023-06-04T02:24:37;10.50;99.90
24444;DHT22;13346;50.984;5.822;2023-06-04T02:27:08;10.20;99.90
24444;DHT22;13346;50.984;5.822;2023-06-04T02:29:36;10.10;99.90
24444;DHT22;13346;50.984;5.822;2023-06-04T02:32:04;9.80;99.90
24444;DHT22;13346;50.984;5.822;2023-06-04T02:34:31;9.90;99.90
24444;DHT22;13346;50.984;5.822;2023-06-04T02:37:01;9.80;99.90
24444;DHT22;13346;50.984;5.822;2023-06-04T02:39:28;9.80;99.90
24444;DHT22;13346;50.984;5.822;2023-06-04T02:41:55;9.80;99.90
24444;DHT22;13346;50.984;5.822;2023-06-04T02:44:23;10.10;99.90
24444;DHT22;13346;50.984;5.822;2023-06-04T02:46:50;10.00;99.90
24444;DHT22;13346;50.984;5.822;2023-06-04T02:49:17;10.10;99.90
24444;DHT22;13346;50.984;5.822;2023-06-04T02:51:45;9.90;99.90
24444;DHT22;13346;50.984;5.822;2023-06-04T02:54:13;9.70;99.90
24444;DHT22;13346;50.984;5.822;2023-06-04T02:56:41;9.80;99.90
24444;DHT22;13346;50.984;5.822;2023-06-04T02:59:09;9.70;99.90
24444;DHT22;13346;50.984;5.822;2023-06-04T03:01:36;9.70;99.90
24444;DHT22;13346;50.984;5.822;2023-06-04T03:04:04;9.60;99.90
24444;DHT22;13346;50.984;5.822;2023-06-04T03:06:36;9.40;99.90
24444;DHT22;13346;50.984;5.822;2023-06-04T03:09:04;9.50;99.90
24444;DHT22;13346;50.984;5.822;2023-06-04T03:11:34;9.30;99.90
24444;DHT22;13346;50.984;5.822;2023-06-04T03:14:01;9.30;99.90
24444;DHT22;13346;50.984;5.822;2023-06-04T03:16:28;9.50;99.90
24444;DHT22;13346;50.984;5.822;2023-06-04T03:18:55;9.30;99.90
24444;DHT22;13346;50.984;5.822;2023-06-04T03:21:23;9.20;99.90
24444;DHT22;13346;50.984;5.822;2023-06-04T03:23:51;9.30;99.90
24444;DHT22;13346;50.984;5.822;2023-06-04T03:26:18;9.20;99.90
24444;DHT22;13346;50.984;5.822;2023-06-04T03:28:47;9.30;99.90
24444;DHT22;13346;50.984;5.822;2023-06-04T03:31:14;9.40;99.90
24444;DHT22;13346;50.984;5.822;2023-06-04T03:33:41;9.30;99.90
24444;DHT22;13346;50.984;5.822;2023-06-04T03:36:09;9.10;99.90
24444;DHT22;13346;50.984;5.822;2023-06-04T03:38:36;9.10;99.90
24444;DHT22;13346;50.984;5.822;2023-06-04T03:41:03;9.30;99.90
24444;DHT22;13346;50.984;5.822;2023-06-04T03:43:30;9.10;99.90
24444;DHT22;13346;50.984;5.822;2023-06-04T03:45:58;9.20;99.90
24444;DHT22;13346;50.984;5.822;2023-06-04T03:48:26;9.50;99.90
24444;DHT22;13346;50.984;5.822;2023-06-04T03:50:53;9.40;99.90
24444;DHT22;13346;50.984;5.822;2023-06-04T03:53:20;9.30;99.90
24444;DHT22;13346;50.984;5.822;2023-06-04T03:55:47;9.20;99.90
24444;DHT22;13346;50.984;5.822;2023-06-04T03:58:14;9.20;99.90
24444;DHT22;13346;50.984;5.822;2023-06-04T04:00:41;9.20;99.90
24444;DHT22;13346;50.984;5.822;2023-06-04T04:03:10;9.30;99.90
24444;DHT22;13346;50.984;5.822;2023-06-04T04:05:37;9.20;99.90
24444;DHT22;13346;50.984;5.822;2023-06-04T04:08:04;9.20;99.90
24444;DHT22;13346;50.984;5.822;2023-06-04T04:10:31;9.40;99.90
24444;DHT22;13346;50.984;5.822;2023-06-04T04:12:59;9.40;99.90
24444;DHT22;13346;50.984;5.822;2023-06-04T04:15:26;9.30;99.90
24444;DHT22;13346;50.984;5.822;2023-06-04T04:17:54;9.50;99.90
24444;DHT22;13346;50.984;5.822;2023-06-04T04:20:23;9.50;99.90
24444;DHT22;13346;50.984;5.822;2023-06-04T04:22:51;9.60;99.90
24444;DHT22;13346;50.984;5.822;2023-06-04T04:25:18;9.70;99.90
24444;DHT22;13346;50.984;5.822;2023-06-04T04:27:45;9.90;99.90
24444;DHT22;13346;50.984;5.822;2023-06-04T04:30:14;9.80;99.90
24444;DHT22;13346;50.984;5.822;2023-06-04T04:32:42;9.80;99.90
24444;DHT22;13346;50.984;5.822;2023-06-04T04:35:14;9.90;99.90
24444;DHT22;13346;50.984;5.822;2023-06-04T04:37:45;9.90;99.90
24444;DHT22;13346;50.984;5.822;2023-06-04T04:40:12;10.00;99.90
24444;DHT22;13346;50.984;5.822;2023-06-04T04:42:39;10.30;99.90
24444;DHT22;13346;50.984;5.822;2023-06-04T04:45:08;10.30;99.90
24444;DHT22;13346;50.984;5.822;2023-06-04T04:47:36;10.30;99.90
24444;DHT22;13346;50.984;5.822;2023-06-04T04:50:04;10.40;99.90
24444;DHT22;13346;50.984;5.822;2023-06-04T04:52:31;10.50;99.90
24444;DHT22;13346;50.984;5.822;2023-06-04T04:54:59;10.60;99.90
24444;DHT22;13346;50.984;5.822;2023-06-04T04:57:27;10.60;99.90
24444;DHT22;13346;50.984;5.822;2023-06-04T04:59:54;10.70;99.90
24444;DHT22;13346;50.984;5.822;2023-06-04T05:02:21;11.00;99.90
24444;DHT22;13346;50.984;5.822;2023-06-04T05:04:48;11.00;99.90
24444;DHT22;13346;50.984;5.822;2023-06-04T05:07:15;11.00;99.90
24444;DHT22;13346;50.984;5.822;2023-06-04T05:09:42;11.10;99.90
24444;DHT22;13346;50.984;5.822;2023-06-04T05:12:11;11.20;99.90
24444;DHT22;13346;50.984;5.822;2023-06-04T05:14:38;11.20;99.90
24444;DHT22;13346;50.984;5.822;2023-06-04T05:17:05;11.20;99.90
24444;DHT22;13346;50.984;5.822;2023-06-04T05:19:36;11.40;99.90
24444;DHT22;13346;50.984;5.822;2023-06-04T05:22:04;11.60;99.90
24444;DHT22;13346;50.984;5.822;2023-06-04T05:24:32;11.90;99.90
24444;DHT22;13346;50.984;5.822;2023-06-04T05:26:59;11.90;99.90
24444;DHT22;13346;50.984;5.822;2023-06-04T05:29:30;12.40;99.90
24444;DHT22;13346;50.984;5.822;2023-06-04T05:31:57;13.00;99.90
24444;DHT22;13346;50.984;5.822;2023-06-04T05:34:24;13.50;99.90
24444;DHT22;13346;50.984;5.822;2023-06-04T05:36:52;14.60;99.90
24444;DHT22;13346;50.984;5.822;2023-06-04T05:39:19;13.90;99.90
24444;DHT22;13346;50.984;5.822;2023-06-04T05:41:49;14.20;99.90
24444;DHT22;13346;50.984;5.822;2023-06-04T05:44:16;14.70;99.90
24444;DHT22;13346;50.984;5.822;2023-06-04T05:46:45;14.70;99.90
24444;DHT22;13346;50.984;5.822;2023-06-04T05:49:12;15.00;99.90
24444;DHT22;13346;50.984;5.822;2023-06-04T05:51:39;14.70;99.90
24444;DHT22;13346;50.984;5.822;2023-06-04T05:54:06;15.30;99.50
24444;DHT22;13346;50.984;5.822;2023-06-04T05:56:33;15.50;99.90
24444;DHT22;13346;50.984;5.822;2023-06-04T05:59:01;15.90;93.40
24444;DHT22;13346;50.984;5.822;2023-06-04T06:01:28;16.10;89.50
24444;DHT22;13346;50.984;5.822;2023-06-04T06:03:56;16.30;90.70
24444;DHT22;13346;50.984;5.822;2023-06-04T06:06:23;15.50;92.00
24444;DHT22;13346;50.984;5.822;2023-06-04T06:08:51;16.10;80.70
24444;DHT22;13346;50.984;5.822;2023-06-04T06:11:18;15.70;85.80
24444;DHT22;13346;50.984;5.822;2023-06-04T06:13:46;16.50;73.40
24444;DHT22;13346;50.984;5.822;2023-06-04T06:16:13;16.80;71.30
24444;DHT22;13346;50.984;5.822;2023-06-04T06:18:42;17.10;73.80
24444;DHT22;13346;50.984;5.822;2023-06-04T06:21:11;16.80;78.40
24444;DHT22;13346;50.984;5.822;2023-06-04T06:23:38;16.60;72.60
24444;DHT22;13346;50.984;5.822;2023-06-04T06:26:05;16.70;73.70
24444;DHT22;13346;50.984;5.822;2023-06-04T06:28:34;17.10;76.30
24444;DHT22;13346;50.984;5.822;2023-06-04T06:31:02;17.60;56.00
24444;DHT22;13346;50.984;5.822;2023-06-04T06:33:29;17.00;57.90
24444;DHT22;13346;50.984;5.822;2023-06-04T06:35:57;17.60;52.70
24444;DHT22;13346;50.984;5.822;2023-06-04T06:38:27;16.90;54.00
24444;DHT22;13346;50.984;5.822;2023-06-04T06:40:54;16.80;53.50
24444;DHT22;13346;50.984;5.822;2023-06-04T06:43:21;17.40;49.50
24444;DHT22;13346;50.984;5.822;2023-06-04T06:45:48;17.10;50.10
24444;DHT22;13346;50.984;5.822;2023-06-04T06:48:15;18.10;41.60
24444;DHT22;13346;50.984;5.822;2023-06-04T06:50:43;17.80;36.20
24444;DHT22;13346;50.984;5.822;2023-06-04T06:53:10;18.30;34.60
24444;DHT22;13346;50.984;5.822;2023-06-04T06:55:38;18.30;35.10
24444;DHT22;13346;50.984;5.822;2023-06-04T06:58:06;17.60;42.00
24444;DHT22;13346;50.984;5.822;2023-06-04T07:00:33;17.80;42.90
24444;DHT22;13346;50.984;5.822;2023-06-04T07:03:00;18.10;31.80
24444;DHT22;13346;50.984;5.822;2023-06-04T07:05:27;19.20;27.70
24444;DHT22;13346;50.984;5.822;2023-06-04T07:07:54;19.40;23.30
24444;DHT22;13346;50.984;5.822;2023-06-04T07:10:22;18.50;22.70
24444;DHT22;13346;50.984;5.822;2023-06-04T07:12:51;19.20;29.20
24444;DHT22;13346;50.984;5.822;2023-06-04T07:15:18;18.70;24.50
24444;DHT22;13346;50.984;5.822;2023-06-04T07:17:46;18.80;22.60
24444;DHT22;13346;50.984;5.822;2023-06-04T07:20:13;18.60;23.00
24444;DHT22;13346;50.984;5.822;2023-06-04T07:22:40;17.90;26.90
24444;DHT22;13346;50.984;5.822;2023-06-04T07:25:08;18.80;22.10
24444;DHT22;13346;50.984;5.822;2023-06-04T07:27:35;19.20;23.70
24444;DHT22;13346;50.984;5.822;2023-06-04T07:30:05;18.30;25.50
24444;DHT22;13346;50.984;5.822;2023-06-04T07:32:33;18.60;24.50
24444;DHT22;13346;50.984;5.822;2023-06-04T07:35:01;18.70;20.60
24444;DHT22;13346;50.984;5.822;2023-06-04T07:37:28;18.90;26.30
24444;DHT22;13346;50.984;5.822;2023-06-04T07:39:55;18.80;23.10
24444;DHT22;13346;50.984;5.822;2023-06-04T07:42:22;18.70;24.30
24444;DHT22;13346;50.984;5.822;2023-06-04T07:44:49;18.80;20.60
24444;DHT22;13346;50.984;5.822;2023-06-04T07:47:18;18.40;19.30
24444;DHT22;13346;50.984;5.822;2023-06-04T07:49:45;19.10;23.80
24444;DHT22;13346;50.984;5.822;2023-06-04T07:52:13;18.00;24.80
24444;DHT22;13346;50.984;5.822;2023-06-04T07:54:40;17.90;21.40
24444;DHT22;13346;50.984;5.822;2023-06-04T07:57:08;18.40;17.90
24444;DHT22;13346;50.984;5.822;2023-06-04T07:59:35;18.90;18.80
24444;DHT22;13346;50.984;5.822;2023-06-04T08:02:03;18.30;24.80
24444;DHT22;13346;50.984;5.822;2023-06-04T08:04:31;18.40;21.00
24444;DHT22;13346;50.984;5.822;2023-06-04T08:06:59;18.60;22.60
24444;DHT22;13346;50.984;5.822;2023-06-04T08:09:26;18.40;26.70
24444;DHT22;13346;50.984;5.822;2023-06-04T08:11:53;18.60;28.50
24444;DHT22;13346;50.984;5.822;2023-06-04T08:14:20;19.00;19.80
24444;DHT22;13346;50.984;5.822;2023-06-04T08:16:48;18.70;17.50
24444;DHT22;13346;50.984;5.822;2023-06-04T08:19:16;19.20;22.40
24444;DHT22;13346;50.984;5.822;2023-06-04T08:21:44;19.50;21.40
24444;DHT22;13346;50.984;5.822;2023-06-04T08:24:13;18.80;21.80
24444;DHT22;13346;50.984;5.822;2023-06-04T08:26:40;19.50;15.70
24444;DHT22;13346;50.984;5.822;2023-06-04T08:29:07;19.20;13.60
24444;DHT22;13346;50.984;5.822;2023-06-04T08:31:34;18.90;18.10
24444;DHT22;13346;50.984;5.822;2023-06-04T08:34:01;19.10;16.10
24444;DHT22;13346;50.984;5.822;2023-06-04T08:36:30;19.60;16.80
24444;DHT22;13346;50.984;5.822;2023-06-04T08:39:00;19.50;10.10
24444;DHT22;13346;50.984;5.822;2023-06-04T08:41:29;19.90;18.30
24444;DHT22;13346;50.984;5.822;2023-06-04T08:43:57;19.70;25.50
24444;DHT22;13346;50.984;5.822;2023-06-04T08:46:27;19.30;10.30
24444;DHT22;13346;50.984;5.822;2023-06-04T08:48:57;19.40;9.20
24444;DHT22;13346;50.984;5.822;2023-06-04T08:51:26;19.50;12.80
24444;DHT22;13346;50.984;5.822;2023-06-04T08:53:53;19.60;9.90
24444;DHT22;13346;50.984;5.822;2023-06-04T08:56:24;19.70;21.90
24444;DHT22;13346;50.984;5.822;2023-06-04T08:58:51;19.80;10.40
24444;DHT22;13346;50.984;5.822;2023-06-04T09:01:20;19.90;10.30
24444;DHT22;13346;50.984;5.822;2023-06-04T09:03:47;19.90;7.20
24444;DHT22;13346;50.984;5.822;2023-06-04T09:06:15;19.80;9.50
24444;DHT22;13346;50.984;5.822;2023-06-04T09:08:43;20.00;8.60
24444;DHT22;13346;50.984;5.822;2023-06-04T09:11:14;19.70;18.30
24444;DHT22;13346;50.984;5.822;2023-06-04T09:13:43;20.00;24.00
24444;DHT22;13346;50.984;5.822;2023-06-04T09:16:13;20.30;6.70
24444;DHT22;13346;50.984;5.822;2023-06-04T09:18:41;20.30;9.40
24444;DHT22;13346;50.984;5.822;2023-06-04T09:21:09;20.10;5.10
24444;DHT22;13346;50.984;5.822;2023-06-04T09:23:43;20.50;2.40
24444;DHT22;13346;50.984;5.822;2023-06-04T09:26:10;21.00;1.00
24444;DHT22;13346;50.984;5.822;2023-06-04T09:28:40;20.80;1.20
24444;DHT22;13346;50.984;5.822;2023-06-04T09:31:09;21.10;1.00
24444;DHT22;13346;50.984;5.822;2023-06-04T09:33:44;20.80;1.00
24444;DHT22;13346;50.984;5.822;2023-06-04T09:36:11;21.60;1.00
24444;DHT22;13346;50.984;5.822;2023-06-04T09:38:39;21.40;1.00
24444;DHT22;13346;50.984;5.822;2023-06-04T09:41:11;21.20;1.00
24444;DHT22;13346;50.984;5.822;2023-06-04T09:43:38;21.40;1.00
24444;DHT22;13346;50.984;5.822;2023-06-04T09:46:11;20.70;1.00
24444;DHT22;13346;50.984;5.822;2023-06-04T09:48:39;21.60;1.00
24444;DHT22;13346;50.984;5.822;2023-06-04T09:51:07;21.30;1.00
24444;DHT22;13346;50.984;5.822;2023-06-04T09:53:35;21.70;1.00
24444;DHT22;13346;50.984;5.822;2023-06-04T09:56:03;21.90;1.00
24444;DHT22;13346;50.984;5.822;2023-06-04T09:58:32;21.40;1.00
24444;DHT22;13346;50.984;5.822;2023-06-04T10:01:01;21.90;1.00
24444;DHT22;13346;50.984;5.822;2023-06-04T10:03:32;21.60;1.00
24444;DHT22;13346;50.984;5.822;2023-06-04T10:06:04;21.40;1.00
24444;DHT22;13346;50.984;5.822;2023-06-04T10:08:32;22.60;1.00
24444;DHT22;13346;50.984;5.822;2023-06-04T10:11:02;22.30;1.00
24444;DHT22;13346;50.984;5.822;2023-06-04T10:13:37;21.90;1.00
24444;DHT22;13346;50.984;5.822;2023-06-04T10:16:07;22.50;1.00
24444;DHT22;13346;50.984;5.822;2023-06-04T10:18:35;22.90;1.00
24444;DHT22;13346;50.984;5.822;2023-06-04T10:21:03;22.60;1.00
24444;DHT22;13346;50.984;5.822;2023-06-04T10:23:32;22.60;1.00
24444;DHT22;13346;50.984;5.822;2023-06-04T10:25:59;22.00;1.00
24444;DHT22;13346;50.984;5.822;2023-06-04T10:28:27;23.40;1.00
